createdAt,value
2023-05-15T00:02:11.653Z,99821.06
2023-05-15T00:04:39.001Z,99816.11
2023-05-15T00:07:06.000Z,99813.30
2023-05-15T00:09:32.995Z,99813.55
2023-05-15T00:12:00.450Z,99812.33
2023-05-15T00:14:27.250Z,99810.97
2023-05-15T00:16:54.084Z,99809.91
2023-05-15T00:19:20.976Z,99808.02
2023-05-15T00:21:47.907Z,99803.42
2023-05-15T00:24:14.840Z,99806.06
2023-05-15T00:26:41.842Z,99805.16
2023-05-15T00:29:09.785Z,99804.30
2023-05-15T00:31:36.832Z,99806.63
2023-05-15T00:34:03.767Z,99806.98
2023-05-15T00:36:30.982Z,99808.54
2023-05-15T00:38:58.034Z,99807.63
2023-05-15T00:41:25.205Z,99808.29
2023-05-15T00:43:52.399Z,99812.31
2023-05-15T00:46:20.191Z,99814.79
2023-05-15T00:48:47.172Z,99810.57
2023-05-15T00:51:14.124Z,99812.27
2023-05-15T00:53:40.970Z,99813.48
2023-05-15T00:56:08.014Z,99809.95
2023-05-15T00:58:34.996Z,99809.16
2023-05-15T01:01:01.984Z,99807.02
2023-05-15T01:03:29.196Z,99804.46
2023-05-15T01:05:56.116Z,99799.51
2023-05-15T01:08:28.182Z,99794.17
2023-05-15T01:10:55.001Z,99795.57
2023-05-15T01:13:22.662Z,99792.71
2023-05-15T01:15:49.986Z,99797.78
2023-05-15T01:18:17.192Z,99796.30
2023-05-15T01:20:55.801Z,99799.41
2023-05-15T01:23:51.090Z,99799.08
2023-05-15T01:26:36.834Z,99801.15
2023-05-15T01:29:15.051Z,99805.91
2023-05-15T01:31:42.436Z,99801.98
2023-05-15T01:34:10.202Z,99807.45
2023-05-15T01:36:44.323Z,99801.91
2023-05-15T01:39:11.262Z,99801.86
2023-05-15T01:42:07.817Z,99800.77
2023-05-15T01:44:37.069Z,99801.48
2023-05-15T01:47:10.455Z,99798.40
2023-05-15T01:49:37.825Z,99799.39
2023-05-15T01:52:20.756Z,99797.50
2023-05-15T01:54:47.692Z,99798.77
2023-05-15T01:57:14.641Z,99794.55
2023-05-15T01:59:42.524Z,99795.34
2023-05-15T02:02:09.524Z,99794.72
2023-05-15T02:04:37.549Z,99791.14
2023-05-15T02:07:05.128Z,99791.27
2023-05-15T02:09:32.320Z,99788.95
2023-05-15T02:12:01.389Z,99791.23
2023-05-15T02:14:31.668Z,99794.09
2023-05-15T02:16:58.653Z,99796.84
2023-05-15T02:19:27.538Z,99795.38
2023-05-15T02:21:54.692Z,99794.09
2023-05-15T02:24:21.652Z,99790.98
2023-05-15T02:27:05.309Z,99790.16
2023-05-15T02:30:03.664Z,99794.92
2023-05-15T02:32:58.776Z,99793.45
2023-05-15T02:35:39.415Z,99792.86
2023-05-15T02:38:09.338Z,99796.31
2023-05-15T02:40:36.838Z,99796.16
2023-05-15T02:43:05.985Z,99796.87
2023-05-15T02:45:32.896Z,99795.73
2023-05-15T02:47:59.836Z,99798.45
2023-05-15T02:50:26.944Z,99798.95
2023-05-15T02:53:05.354Z,99797.56
2023-05-15T02:55:32.321Z,99792.05
2023-05-15T02:57:59.282Z,99789.56
2023-05-15T03:00:26.412Z,99787.28
2023-05-15T03:02:53.479Z,99783.01
2023-05-15T03:05:21.008Z,99787.42
2023-05-15T03:07:48.085Z,99789.73
2023-05-15T03:10:15.035Z,99791.80
2023-05-15T03:12:41.945Z,99789.68
2023-05-15T03:15:09.452Z,99788.35
2023-05-15T03:17:36.464Z,99785.29
2023-05-15T03:20:05.259Z,99783.72
2023-05-15T03:22:32.386Z,99784.64
2023-05-15T03:24:59.284Z,99786.30
2023-05-15T03:27:26.664Z,99784.08
2023-05-15T03:29:53.610Z,99784.85
2023-05-15T03:32:21.071Z,99782.48
2023-05-15T03:34:48.029Z,99786.05
2023-05-15T03:37:14.905Z,99788.31
2023-05-15T03:39:41.933Z,99790.66
2023-05-15T03:42:08.880Z,99789.81
2023-05-15T03:44:35.785Z,99787.92
2023-05-15T03:47:02.719Z,99787.48
2023-05-15T03:49:29.730Z,99788.62
2023-05-15T03:51:57.929Z,99792.91
2023-05-15T03:54:24.874Z,99793.89
2023-05-15T03:56:53.090Z,99796.06
2023-05-15T03:59:19.989Z,99795.82
2023-05-15T04:02:02.922Z,99796.54
2023-05-15T04:04:31.105Z,99797.16
2023-05-15T04:06:57.989Z,99796.08
2023-05-15T04:09:24.901Z,99799.31
2023-05-15T04:11:51.846Z,99798.46
2023-05-15T04:14:18.807Z,99800.27
2023-05-15T04:16:45.887Z,99797.12
2023-05-15T04:19:12.974Z,99796.33
2023-05-15T04:21:39.970Z,99792.97
2023-05-15T04:24:07.657Z,99796.45
2023-05-15T04:26:34.738Z,99797.70
2023-05-15T04:29:04.299Z,99795.64
2023-05-15T04:31:31.983Z,99798.00
2023-05-15T04:33:58.942Z,99797.48
2023-05-15T04:36:25.796Z,99793.34
2023-05-15T04:38:52.781Z,99790.61
2023-05-15T04:41:19.662Z,99790.64
2023-05-15T04:43:46.852Z,99788.38
2023-05-15T04:46:13.793Z,99784.11
2023-05-15T04:48:40.823Z,99783.77
2023-05-15T04:51:08.008Z,99783.80
2023-05-15T04:53:34.888Z,99786.39
2023-05-15T04:56:01.787Z,99786.16
2023-05-15T04:58:28.666Z,99785.58
2023-05-15T05:00:55.633Z,99784.64
2023-05-15T05:03:23.118Z,99784.04
2023-05-15T05:05:50.131Z,99784.56
2023-05-15T05:08:17.154Z,99781.68
2023-05-15T05:10:44.208Z,99778.98
2023-05-15T05:13:11.093Z,99781.03
2023-05-15T05:15:38.277Z,99779.92
2023-05-15T05:18:06.263Z,99779.65
2023-05-15T05:20:33.235Z,99774.80
2023-05-15T05:23:00.225Z,99770.77
2023-05-15T05:25:27.229Z,99767.91
2023-05-15T05:27:54.158Z,99766.61
2023-05-15T05:30:22.481Z,99769.90
2023-05-15T05:32:49.595Z,99769.89
2023-05-15T05:35:16.598Z,99771.64
2023-05-15T05:37:43.513Z,99772.89
2023-05-15T05:40:11.036Z,99773.14
2023-05-15T05:42:38.070Z,99772.38
2023-05-15T05:45:06.782Z,99770.61
2023-05-15T05:47:34.240Z,99772.23
2023-05-15T05:50:01.148Z,99766.95
2023-05-15T05:52:29.174Z,99764.76
2023-05-15T05:54:56.124Z,99763.41
2023-05-15T05:57:23.040Z,99762.26
2023-05-15T05:59:50.087Z,99765.10
2023-05-15T06:02:17.097Z,99766.48
2023-05-15T06:04:44.197Z,99764.88
2023-05-15T06:07:11.293Z,99757.95
2023-05-15T06:09:38.177Z,99761.02
2023-05-15T06:12:05.776Z,99760.60
2023-05-15T06:14:32.760Z,99760.61
2023-05-15T06:17:01.226Z,99765.08
2023-05-15T06:19:29.271Z,99761.85
2023-05-15T06:21:56.155Z,99762.02
2023-05-15T06:24:23.248Z,99759.65
2023-05-15T06:26:50.637Z,99757.11
2023-05-15T06:29:19.343Z,99757.88
2023-05-15T06:31:46.182Z,99758.99
2023-05-15T06:34:13.156Z,99757.52
2023-05-15T06:36:40.718Z,99756.37
2023-05-15T06:39:10.825Z,99754.45
2023-05-15T06:41:38.214Z,99753.36
2023-05-15T06:44:05.217Z,99749.48
2023-05-15T06:46:32.147Z,99741.61
2023-05-15T06:48:59.064Z,99738.20
2023-05-15T06:51:25.958Z,99738.33
2023-05-15T06:53:52.871Z,99739.16
2023-05-15T06:56:19.737Z,99738.76
2023-05-15T06:58:46.578Z,99735.84
2023-05-15T07:01:14.010Z,99739.80
2023-05-15T07:03:43.109Z,99738.95
2023-05-15T07:06:09.986Z,99737.84
2023-05-15T07:08:36.936Z,99736.93
2023-05-15T07:11:04.216Z,99738.98
2023-05-15T07:13:31.106Z,99740.58
2023-05-15T07:15:58.099Z,99734.40
2023-05-15T07:18:24.940Z,99733.35
2023-05-15T07:20:51.831Z,99736.78
2023-05-15T07:23:18.726Z,99729.54
2023-05-15T07:25:46.202Z,99724.73
2023-05-15T07:28:13.201Z,99720.48
2023-05-15T07:30:40.079Z,99723.83
2023-05-15T07:33:07.142Z,99723.08
2023-05-15T07:35:34.192Z,99716.79
2023-05-15T07:38:01.545Z,99715.32
2023-05-15T07:40:28.513Z,99712.39
2023-05-15T07:42:55.391Z,99710.34
2023-05-15T07:45:22.551Z,99710.65
2023-05-15T07:47:49.794Z,99706.67
2023-05-15T07:50:16.824Z,99705.49
2023-05-15T07:52:44.205Z,99706.98
2023-05-15T07:55:11.293Z,99700.30
2023-05-15T07:57:38.429Z,99702.59
2023-05-15T08:00:11.073Z,99698.40
2023-05-15T08:02:41.821Z,99695.94
2023-05-15T08:05:08.902Z,99701.92
2023-05-15T08:07:36.153Z,99700.31
2023-05-15T08:10:06.415Z,99693.72
2023-05-15T08:12:33.528Z,99698.92
2023-05-15T08:15:00.397Z,99698.58
2023-05-15T08:17:27.283Z,99693.38
2023-05-15T08:19:54.360Z,99690.92
2023-05-15T08:22:21.304Z,99690.84
2023-05-15T08:24:48.795Z,99689.67
2023-05-15T08:27:15.600Z,99686.67
2023-05-15T08:29:42.479Z,99681.80
2023-05-15T08:32:09.600Z,99680.66
2023-05-15T08:34:36.481Z,99680.14
2023-05-15T08:37:04.378Z,99683.26
2023-05-15T08:39:31.290Z,99685.14
2023-05-15T08:42:11.520Z,99686.90
2023-05-15T08:44:39.371Z,99683.64
2023-05-15T08:47:06.577Z,99679.44
2023-05-15T08:49:42.286Z,99675.98
2023-05-15T08:52:09.335Z,99672.63
2023-05-15T08:54:36.219Z,99673.20
2023-05-15T08:57:03.161Z,99671.20
2023-05-15T08:59:30.030Z,99670.58
2023-05-15T09:01:57.338Z,99673.88
2023-05-15T09:04:24.341Z,99665.74
2023-05-15T09:06:51.323Z,99663.82
2023-05-15T09:09:18.755Z,99666.33
2023-05-15T09:11:46.535Z,99670.79
2023-05-15T09:14:13.433Z,99664.77
2023-05-15T09:16:40.370Z,99661.20
2023-05-15T09:19:07.371Z,99664.00
2023-05-15T09:21:34.463Z,99666.14
2023-05-15T09:24:18.163Z,99663.89
2023-05-15T09:26:46.166Z,99655.52
2023-05-15T09:29:18.071Z,99651.41
2023-05-15T09:31:48.769Z,99654.45
2023-05-15T09:34:15.787Z,99656.13
2023-05-15T09:36:45.071Z,99658.13
2023-05-15T09:39:12.193Z,99658.73
2023-05-15T09:41:41.931Z,99655.85
2023-05-15T09:44:20.651Z,99652.29
2023-05-15T09:46:48.678Z,99646.64
2023-05-15T09:49:15.722Z,99645.96
2023-05-15T09:51:44.502Z,99650.21
2023-05-15T09:54:16.095Z,99647.27
2023-05-15T09:56:47.337Z,99643.02
2023-05-15T09:59:15.851Z,99646.04
2023-05-15T10:01:46.177Z,99643.31
2023-05-15T10:04:14.104Z,99643.20
2023-05-15T10:06:43.363Z,99642.41
2023-05-15T10:09:11.181Z,99639.51
2023-05-15T10:11:39.351Z,99638.19
2023-05-15T10:14:07.257Z,99637.23
2023-05-15T10:16:36.068Z,99635.27
2023-05-15T10:19:05.320Z,99635.85
2023-05-15T10:21:33.875Z,99633.48
2023-05-15T10:24:01.292Z,99637.16
2023-05-15T10:26:39.687Z,99636.80
2023-05-15T10:29:08.743Z,99635.81
2023-05-15T10:31:36.727Z,99636.98
2023-05-15T10:34:07.327Z,99632.85
2023-05-15T10:36:35.010Z,99626.37
2023-05-15T10:39:03.222Z,99620.12
2023-05-15T10:41:30.919Z,99617.20
2023-05-15T10:43:59.319Z,99620.35
2023-05-15T10:46:27.107Z,99623.26
2023-05-15T10:48:54.501Z,99625.36
2023-05-15T10:51:27.588Z,99615.90
2023-05-15T10:53:55.467Z,99611.91
2023-05-15T10:56:37.805Z,99607.78
2023-05-15T10:59:09.527Z,99611.77
2023-05-15T11:01:37.928Z,99607.25
2023-05-15T11:04:08.208Z,99605.19
2023-05-15T11:06:35.844Z,99600.95
2023-05-15T11:09:21.930Z,99599.34
2023-05-15T11:11:52.052Z,99597.05
2023-05-15T11:14:19.739Z,99594.67
2023-05-15T11:16:52.784Z,99591.13
2023-05-15T11:19:22.768Z,99586.84
2023-05-15T11:22:06.216Z,99581.77
2023-05-15T11:24:46.844Z,99581.10
2023-05-15T11:27:16.799Z,99577.64
2023-05-15T11:30:16.074Z,99570.83
2023-05-15T11:32:52.755Z,99567.16
2023-05-15T11:35:22.806Z,99558.59
2023-05-15T11:37:51.464Z,99556.35
2023-05-15T11:40:31.976Z,99557.16
2023-05-15T11:43:08.780Z,99556.35
2023-05-15T11:45:37.973Z,99553.88
2023-05-15T11:48:08.736Z,99551.92
2023-05-15T11:50:35.944Z,99551.86
2023-05-15T11:53:06.555Z,99547.20
2023-05-15T11:55:34.461Z,99540.84
2023-05-15T11:58:01.828Z,99538.55
2023-05-15T12:00:28.869Z,99539.19
2023-05-15T12:02:56.362Z,99534.52
2023-05-15T12:05:23.700Z,99532.86
2023-05-15T12:07:50.658Z,99527.74
2023-05-15T12:10:17.570Z,99525.20
2023-05-15T12:12:46.064Z,99524.63
2023-05-15T12:15:13.743Z,99524.38
2023-05-15T12:17:41.158Z,99522.27
2023-05-15T12:20:10.947Z,99519.34
2023-05-15T12:22:42.638Z,99513.79
2023-05-15T12:25:11.479Z,99511.70
2023-05-15T12:27:39.359Z,99498.88
2023-05-15T12:30:07.140Z,99499.10
2023-05-15T12:32:35.158Z,99500.47
2023-05-15T12:35:03.057Z,99498.46
2023-05-15T12:37:35.977Z,99502.92
2023-05-15T12:40:12.229Z,99506.13
2023-05-15T12:42:42.849Z,99507.73
2023-05-15T12:45:16.869Z,99508.15
2023-05-15T12:47:44.874Z,99508.14
2023-05-15T12:50:22.061Z,99508.56
2023-05-15T12:52:53.449Z,99501.37
2023-05-15T12:55:27.656Z,99503.09
2023-05-15T12:57:58.063Z,99508.84
2023-05-15T13:00:25.286Z,99508.50
2023-05-15T13:02:53.591Z,99505.71
2023-05-15T13:05:22.730Z,99498.39
2023-05-15T13:07:49.559Z,99497.15
2023-05-15T13:10:16.576Z,99505.52
2023-05-15T13:12:45.477Z,99507.09
2023-05-15T13:15:51.224Z,99510.87
2023-05-15T13:18:18.639Z,99509.83
2023-05-15T13:20:50.321Z,99509.10
2023-05-15T13:23:21.307Z,99507.40
2023-05-15T13:25:48.160Z,99500.13
2023-05-15T13:28:15.474Z,99506.30
2023-05-15T13:30:42.835Z,99499.88
2023-05-15T13:33:10.882Z,99502.91
2023-05-15T13:35:38.273Z,99500.93
2023-05-15T13:38:05.118Z,99503.77
2023-05-15T13:40:37.902Z,99503.60
2023-05-15T13:43:07.003Z,99498.27
2023-05-15T13:45:34.050Z,99494.63
2023-05-15T13:48:01.094Z,99496.41
2023-05-15T13:50:28.201Z,99497.02
2023-05-15T13:52:56.035Z,99495.48
2023-05-15T13:55:23.499Z,99490.33
2023-05-15T13:57:51.654Z,99484.85
2023-05-15T14:00:19.896Z,99481.20
2023-05-15T14:02:46.928Z,99484.67
2023-05-15T14:05:14.696Z,99485.23
2023-05-15T14:07:41.668Z,99485.37
2023-05-15T14:10:10.082Z,99486.08
2023-05-15T14:12:37.745Z,99481.61
2023-05-15T14:15:05.281Z,99476.11
2023-05-15T14:17:32.264Z,99475.89
2023-05-15T14:19:59.220Z,99475.51
2023-05-15T14:22:26.093Z,99472.52
2023-05-15T14:24:53.246Z,99473.34
2023-05-15T14:27:20.456Z,99468.55
2023-05-15T14:29:49.441Z,99467.77
2023-05-15T14:32:17.013Z,99465.53
2023-05-15T14:34:44.397Z,99465.92
2023-05-15T14:37:11.502Z,99462.64
2023-05-15T14:39:38.400Z,99460.48
2023-05-15T14:42:06.483Z,99459.29
2023-05-15T14:44:36.325Z,99457.98
2023-05-15T14:47:12.923Z,99456.02
2023-05-15T14:49:40.046Z,99453.65
2023-05-15T14:52:09.301Z,99456.77
2023-05-15T14:54:36.373Z,99452.63
2023-05-15T14:57:03.969Z,99445.80
2023-05-15T14:59:30.994Z,99439.77
2023-05-15T15:01:58.204Z,99440.00
2023-05-15T15:04:26.839Z,99446.42
2023-05-15T15:06:57.041Z,99441.16
2023-05-15T15:09:25.231Z,99436.48
2023-05-15T15:11:52.880Z,99430.73
2023-05-15T15:14:19.699Z,99431.61
2023-05-15T15:16:46.856Z,99431.74
2023-05-15T15:19:15.118Z,99432.36
2023-05-15T15:21:43.544Z,99431.36
2023-05-15T15:24:10.595Z,99427.57
2023-05-15T15:26:37.667Z,99429.91
2023-05-15T15:29:04.507Z,99432.84
2023-05-15T15:31:31.877Z,99425.02
2023-05-15T15:33:59.035Z,99425.81
2023-05-15T15:36:25.993Z,99425.74
2023-05-15T15:38:52.836Z,99424.06
2023-05-15T15:41:21.761Z,99423.16
2023-05-15T15:43:48.741Z,99427.98
2023-05-15T15:46:15.772Z,99424.48
2023-05-15T15:48:42.680Z,99433.24
2023-05-15T15:51:09.520Z,99435.06
2023-05-15T15:53:36.363Z,99436.23
2023-05-15T15:56:03.258Z,99432.74
2023-05-15T15:58:30.206Z,99430.10
2023-05-15T16:00:57.908Z,99428.44
2023-05-15T16:03:25.190Z,99421.98
2023-05-15T16:05:52.060Z,99423.85
2023-05-15T16:08:19.004Z,99424.89
2023-05-15T16:10:45.937Z,99425.70
2023-05-15T16:13:13.302Z,99426.46
2023-05-15T16:15:40.775Z,99423.68
2023-05-15T16:18:07.860Z,99421.05
2023-05-15T16:20:35.409Z,99426.36
2023-05-15T16:23:02.509Z,99427.16
2023-05-15T16:25:29.432Z,99424.70
2023-05-15T16:27:56.301Z,99426.66
2023-05-15T16:30:28.237Z,99430.63
2023-05-15T16:33:01.536Z,99429.25
2023-05-15T16:35:28.567Z,99423.20
2023-05-15T16:37:55.532Z,99424.70
2023-05-15T16:40:22.419Z,99426.95
2023-05-15T16:42:49.423Z,99425.32
2023-05-15T16:45:16.588Z,99422.57
2023-05-15T16:47:43.572Z,99423.70
2023-05-15T16:50:10.879Z,99421.71
2023-05-15T16:52:39.171Z,99423.83
2023-05-15T16:55:06.929Z,99423.33
2023-05-15T16:57:33.714Z,99420.08
2023-05-15T17:00:00.629Z,99420.31
2023-05-15T17:02:27.633Z,99421.07
2023-05-15T17:04:55.352Z,99414.08
2023-05-15T17:07:22.221Z,99415.79
2023-05-15T17:09:49.353Z,99418.21
2023-05-15T17:12:16.270Z,99419.63
2023-05-15T17:14:43.476Z,99423.02
2023-05-15T17:17:10.615Z,99426.24
2023-05-15T17:19:37.512Z,99429.80
2023-05-15T17:22:04.530Z,99430.27
2023-05-15T17:24:42.622Z,99427.54
2023-05-15T17:27:18.444Z,99434.13
2023-05-15T17:29:46.133Z,99433.92
2023-05-15T17:32:13.621Z,99438.44
2023-05-15T17:34:40.771Z,99440.80
2023-05-15T17:37:08.149Z,99439.92
2023-05-15T17:39:35.715Z,99443.99
2023-05-15T17:42:03.469Z,99452.59
2023-05-15T17:44:31.295Z,99454.98
2023-05-15T17:46:58.796Z,99456.25
2023-05-15T17:49:26.520Z,99455.46
2023-05-15T17:51:53.860Z,99458.90
2023-05-15T17:54:20.900Z,99460.30
2023-05-15T17:56:48.207Z,99467.23
2023-05-15T17:59:15.765Z,99469.87
2023-05-15T18:01:42.737Z,99470.41
2023-05-15T18:04:10.097Z,99472.14
2023-05-15T18:06:37.289Z,99474.77
2023-05-15T18:09:04.951Z,99477.50
2023-05-15T18:11:32.021Z,99477.25
2023-05-15T18:13:58.894Z,99476.70
2023-05-15T18:16:25.967Z,99479.11
2023-05-15T18:18:53.128Z,99478.69
2023-05-15T18:21:20.210Z,99486.11
2023-05-15T18:23:47.369Z,99487.45
2023-05-15T18:26:14.433Z,99491.70
2023-05-15T18:28:41.302Z,99492.42
2023-05-15T18:31:08.310Z,99494.42
2023-05-15T18:33:35.378Z,99492.06
2023-05-15T18:36:02.491Z,99494.64
2023-05-15T18:38:30.204Z,99497.63
2023-05-15T18:40:57.052Z,99499.75
2023-05-15T18:43:23.856Z,99503.80
2023-05-15T18:45:50.749Z,99502.41
2023-05-15T18:48:17.622Z,99506.86
2023-05-15T18:50:44.654Z,99511.59
2023-05-15T18:53:11.477Z,99510.84
2023-05-15T18:55:39.488Z,99507.75
2023-05-15T18:58:06.428Z,99507.74
2023-05-15T19:00:38.730Z,99509.54
2023-05-15T19:03:07.038Z,99508.21
2023-05-15T19:05:34.377Z,99508.43
2023-05-15T19:08:02.123Z,99506.33
2023-05-15T19:10:29.837Z,99503.09
2023-05-15T19:12:57.555Z,99499.92
2023-05-15T19:15:24.962Z,99500.88
2023-05-15T19:17:52.344Z,99500.02
2023-05-15T19:20:19.653Z,99500.35
2023-05-15T19:22:46.682Z,99502.77
2023-05-15T19:25:13.599Z,99500.09
2023-05-15T19:27:40.604Z,99501.65
2023-05-15T19:30:09.525Z,99508.16
2023-05-15T19:32:37.048Z,99509.29
2023-05-15T19:35:04.735Z,99508.57
2023-05-15T19:37:31.669Z,99511.46
2023-05-15T19:39:58.650Z,99510.42
2023-05-15T19:42:26.484Z,99511.16
2023-05-15T19:44:53.450Z,99511.36
2023-05-15T19:47:20.799Z,99513.41
2023-05-15T19:49:47.625Z,99518.04
2023-05-15T19:52:15.914Z,99518.64
2023-05-15T19:54:42.908Z,99519.51
2023-05-15T19:57:09.846Z,99520.16
2023-05-15T19:59:36.793Z,99522.42
2023-05-15T20:02:05.344Z,99526.64
2023-05-15T20:04:34.005Z,99524.23
2023-05-15T20:07:00.909Z,99527.90
2023-05-15T20:09:27.744Z,99528.85
2023-05-15T20:11:54.818Z,99528.52
2023-05-15T20:14:21.868Z,99528.73
2023-05-15T20:16:49.068Z,99530.23
2023-05-15T20:19:17.143Z,99535.58
2023-05-15T20:21:44.203Z,99534.13
2023-05-15T20:24:12.242Z,99532.43
2023-05-15T20:26:39.184Z,99539.60
2023-05-15T20:29:06.005Z,99542.55
2023-05-15T20:31:33.785Z,99542.48
2023-05-15T20:34:01.108Z,99541.86
2023-05-15T20:36:28.438Z,99540.89
2023-05-15T20:38:56.025Z,99545.81
2023-05-15T20:41:23.285Z,99550.95
2023-05-15T20:43:50.507Z,99551.77
2023-05-15T20:46:17.585Z,99552.49
2023-05-15T20:48:44.701Z,99554.04
2023-05-15T20:51:11.615Z,99552.30
2023-05-15T20:53:38.494Z,99547.27
2023-05-15T20:56:05.549Z,99546.86
2023-05-15T20:58:32.454Z,99545.42
2023-05-15T21:01:01.348Z,99545.85
2023-05-15T21:03:29.059Z,99540.09
2023-05-15T21:05:57.469Z,99542.84
2023-05-15T21:08:24.701Z,99546.04
2023-05-15T21:10:53.417Z,99553.09
2023-05-15T21:13:20.408Z,99551.44
2023-05-15T21:15:47.276Z,99550.46
2023-05-15T21:18:14.219Z,99544.91
2023-05-15T21:20:41.911Z,99544.48
2023-05-15T21:23:08.933Z,99541.91
2023-05-15T21:25:37.005Z,99542.84
2023-05-15T21:28:04.288Z,99542.96
2023-05-15T21:30:31.766Z,99535.44
2023-05-15T21:32:59.208Z,99538.06
2023-05-15T21:35:29.130Z,99540.88
2023-05-15T21:37:56.041Z,99542.70
2023-05-15T21:40:22.903Z,99543.02
2023-05-15T21:42:49.951Z,99546.56
2023-05-15T21:45:17.593Z,99553.41
2023-05-15T21:47:44.614Z,99554.52
2023-05-15T21:50:11.803Z,99551.98
2023-05-15T21:52:38.704Z,99552.89
2023-05-15T21:55:06.337Z,99552.49
2023-05-15T21:57:33.169Z,99556.08
2023-05-15T22:00:00.219Z,99555.95
2023-05-15T22:02:27.117Z,99555.63
2023-05-15T22:04:53.977Z,99552.23
2023-05-15T22:07:20.832Z,99550.23
2023-05-15T22:09:47.663Z,99547.04
2023-05-15T22:12:14.522Z,99545.64
2023-05-15T22:14:54.564Z,99545.67
2023-05-15T22:17:27.349Z,99550.81
2023-05-15T22:19:54.360Z,99548.39
2023-05-15T22:22:21.519Z,99544.67
2023-05-15T22:24:48.694Z,99542.19
2023-05-15T22:27:16.892Z,99540.03
2023-05-15T22:29:43.844Z,99540.88
2023-05-15T22:32:10.807Z,99538.14
2023-05-15T22:34:37.721Z,99541.16
2023-05-15T22:37:05.033Z,99544.23
2023-05-15T22:39:33.233Z,99543.92
2023-05-15T22:42:00.137Z,99539.34
2023-05-15T22:44:28.622Z,99535.50
2023-05-15T22:46:55.583Z,99538.60
2023-05-15T22:49:25.888Z,99534.55
2023-05-15T22:51:57.485Z,99528.36
2023-05-15T22:54:24.375Z,99522.48
2023-05-15T22:56:52.457Z,99521.59
2023-05-15T22:59:19.808Z,99519.05
2023-05-15T23:01:46.922Z,99520.27
2023-05-15T23:04:14.241Z,99519.23
2023-05-15T23:06:41.439Z,99513.48
2023-05-15T23:09:08.683Z,99513.20
2023-05-15T23:11:35.630Z,99508.44
2023-05-15T23:14:03.101Z,99505.20
2023-05-15T23:16:31.061Z,99504.80
2023-05-15T23:18:58.260Z,99499.34
2023-05-15T23:21:25.498Z,99496.22
2023-05-15T23:23:52.383Z,99494.10
2023-05-15T23:26:19.353Z,99497.77
2023-05-15T23:28:46.305Z,99492.93
2023-05-15T23:31:14.288Z,99491.48
2023-05-15T23:33:41.450Z,99486.29
2023-05-15T23:36:08.996Z,99483.02
2023-05-15T23:38:35.970Z,99479.31
2023-05-15T23:41:02.882Z,99479.65
2023-05-15T23:43:30.045Z,99479.69
2023-05-15T23:45:56.861Z,99478.35
2023-05-15T23:48:23.840Z,99475.52
2023-05-15T23:50:52.534Z,99482.35
2023-05-15T23:53:19.588Z,99480.42
2023-05-15T23:55:46.551Z,99479.61
2023-05-15T23:58:13.406Z,99478.30
